createdAt,value
2022-11-15T00:02:46.416Z,87.02
2022-11-15T00:08:07.908Z,87.31
2022-11-15T00:13:31.980Z,87.55
2022-11-15T00:18:53.548Z,87.58
2022-11-15T00:24:14.641Z,89.56
2022-11-15T00:29:38.771Z,90.32
2022-11-15T00:35:00.178Z,88.33
2022-11-15T00:40:21.463Z,88.65
2022-11-15T00:45:44.151Z,89.77
2022-11-15T00:51:05.447Z,89.31
2022-11-15T00:56:26.911Z,89.29
2022-11-15T01:01:50.060Z,90.86
2022-11-15T01:07:11.377Z,89.99
2022-11-15T01:12:33.492Z,89.79
2022-11-15T01:17:56.532Z,91.24
2022-11-15T01:23:17.995Z,90.31
2022-11-15T01:28:40.729Z,90.31
2022-11-15T01:34:03.483Z,90.70
2022-11-15T01:39:25.368Z,90.95
2022-11-15T01:44:49.897Z,90.53
2022-11-15T01:50:16.513Z,92.13
2022-11-15T01:55:37.847Z,92.52
2022-11-15T02:00:59.238Z,91.39
2022-11-15T02:06:23.726Z,92.63
2022-11-15T02:11:47.339Z,92.36
2022-11-15T02:17:23.059Z,91.95
2022-11-15T02:23:05.631Z,92.64
2022-11-15T02:28:53.119Z,92.94
2022-11-15T02:34:22.362Z,93.14
2022-11-15T02:39:48.914Z,94.12
2022-11-15T02:45:15.629Z,94.04
2022-11-15T02:50:38.343Z,94.17
2022-11-15T02:55:59.962Z,93.94
2022-11-15T03:01:31.432Z,93.41
2022-11-15T03:06:59.645Z,93.53
2022-11-15T03:12:35.958Z,92.67
2022-11-15T03:18:02.846Z,91.96
2022-11-15T03:23:27.506Z,92.53
2022-11-15T03:28:55.092Z,92.04
2022-11-15T03:34:23.686Z,92.08
2022-11-15T03:39:46.783Z,91.11
2022-11-15T03:45:17.325Z,91.54
2022-11-15T03:50:39.202Z,93.13
2022-11-15T03:56:02.226Z,92.79
2022-11-15T04:01:23.888Z,93.25
2022-11-15T04:06:45.178Z,92.48
2022-11-15T04:12:08.398Z,91.73
2022-11-15T04:17:30.074Z,91.88
2022-11-15T04:23:12.559Z,92.47
2022-11-15T04:28:35.725Z,91.92
2022-11-15T04:33:57.486Z,91.07
2022-11-15T04:39:19.155Z,91.06
2022-11-15T04:44:41.732Z,90.89
2022-11-15T04:50:03.051Z,91.85
2022-11-15T04:55:24.467Z,91.10
2022-11-15T05:00:47.289Z,91.58
2022-11-15T05:06:09.176Z,90.64
2022-11-15T05:11:30.755Z,91.73
2022-11-15T05:16:53.580Z,91.85
2022-11-15T05:22:15.260Z,92.78
2022-11-15T05:27:36.899Z,91.74
2022-11-15T05:32:59.798Z,92.44
2022-11-15T05:38:21.650Z,92.20
2022-11-15T05:43:44.349Z,91.66
2022-11-15T05:49:10.201Z,91.36
2022-11-15T05:54:33.214Z,91.74
2022-11-15T05:59:56.472Z,92.84
2022-11-15T06:05:19.291Z,92.74
2022-11-15T06:10:40.821Z,92.40
2022-11-15T06:16:02.403Z,92.38
2022-11-15T06:21:25.301Z,91.87
2022-11-15T06:26:46.832Z,92.05
2022-11-15T06:32:08.186Z,92.77
2022-11-15T06:37:30.811Z,93.49
2022-11-15T06:42:52.050Z,92.88
2022-11-15T06:48:13.252Z,92.26
2022-11-15T06:53:36.143Z,93.07
2022-11-15T06:58:57.864Z,93.31
2022-11-15T07:04:19.307Z,93.38
2022-11-15T07:09:41.932Z,92.93
2022-11-15T07:15:03.239Z,92.40
2022-11-15T07:20:24.497Z,91.86
2022-11-15T07:25:47.105Z,91.44
2022-11-15T07:31:10.542Z,90.93
2022-11-15T07:36:31.810Z,91.72
2022-11-15T07:42:14.639Z,91.84
2022-11-15T07:47:35.807Z,91.37
2022-11-15T07:52:57.541Z,90.85
2022-11-15T07:58:20.409Z,90.49
2022-11-15T08:03:42.137Z,91.48
2022-11-15T08:09:03.618Z,90.78
2022-11-15T08:14:26.674Z,90.61
2022-11-15T08:19:48.935Z,90.35
2022-11-15T08:25:10.399Z,89.25
2022-11-15T08:30:38.310Z,88.57
2022-11-15T08:35:59.820Z,87.55
2022-11-15T08:41:27.887Z,87.31
2022-11-15T08:46:50.736Z,86.64
2022-11-15T08:52:12.236Z,84.00
2022-11-15T08:57:33.730Z,84.62
2022-11-15T09:02:56.623Z,83.64
2022-11-15T09:08:46.943Z,84.08
2022-11-15T09:13:59.427Z,83.86
2022-11-15T09:19:21.909Z,82.86
2022-11-15T09:24:43.816Z,80.94
2022-11-15T09:30:06.141Z,80.92
2022-11-15T09:35:29.223Z,79.42
2022-11-15T09:41:21.022Z,83.58
2022-11-15T09:46:54.596Z,82.02
2022-11-15T09:51:59.268Z,82.91
2022-11-15T09:57:10.528Z,83.42
2022-11-15T10:02:33.360Z,81.06
2022-11-15T10:07:48.747Z,81.74
2022-11-15T10:12:53.791Z,81.53
2022-11-15T10:18:08.841Z,81.00
2022-11-15T10:23:16.690Z,80.95
2022-11-15T10:28:27.980Z,80.89
2022-11-15T10:33:34.781Z,79.99
2022-11-15T10:38:54.766Z,80.34
2022-11-15T10:44:13.708Z,79.96
2022-11-15T10:49:18.439Z,78.23
2022-11-15T10:54:28.033Z,78.40
2022-11-15T10:59:38.757Z,78.05
2022-11-15T11:04:51.922Z,77.63
2022-11-15T11:10:17.717Z,77.88
2022-11-15T11:15:31.406Z,76.55
2022-11-15T11:20:41.383Z,75.80
2022-11-15T11:25:57.516Z,75.88
2022-11-15T11:31:14.148Z,74.68
2022-11-15T11:36:27.539Z,75.01
2022-11-15T11:41:45.666Z,75.59
2022-11-15T11:46:57.507Z,76.26
2022-11-15T11:52:07.570Z,75.87
2022-11-15T11:57:21.946Z,76.16
2022-11-15T12:02:31.500Z,75.91
2022-11-15T12:07:37.250Z,75.48
2022-11-15T12:12:49.640Z,75.95
2022-11-15T12:17:53.141Z,74.49
2022-11-15T12:23:00.196Z,74.32
2022-11-15T12:28:13.699Z,73.87
2022-11-15T12:33:35.167Z,74.00
2022-11-15T12:38:57.607Z,73.48
2022-11-15T12:44:02.849Z,73.56
2022-11-15T12:49:12.567Z,74.50
2022-11-15T12:54:56.814Z,73.68
2022-11-15T13:00:04.961Z,74.09
2022-11-15T13:06:00.753Z,74.11
2022-11-15T13:11:53.150Z,74.95
2022-11-15T13:17:00.688Z,75.12
2022-11-15T13:22:29.300Z,75.11
2022-11-15T13:27:33.257Z,74.16
2022-11-15T13:32:36.243Z,75.59
2022-11-15T13:37:40.944Z,74.96
2022-11-15T13:42:45.892Z,75.57
2022-11-15T13:47:55.927Z,75.77
2022-11-15T13:53:04.940Z,75.92
2022-11-15T13:58:08.108Z,75.96
2022-11-15T14:03:20.021Z,76.80
2022-11-15T14:08:26.375Z,77.63
2022-11-15T14:13:31.352Z,78.28
2022-11-15T14:18:45.978Z,77.72
2022-11-15T14:23:51.645Z,77.92
2022-11-15T14:28:54.638Z,78.18
2022-11-15T14:33:57.562Z,79.81
2022-11-15T14:39:02.330Z,79.90
2022-11-15T14:44:06.356Z,79.48
2022-11-15T14:49:09.476Z,79.31
2022-11-15T14:54:13.885Z,79.72
2022-11-15T14:59:16.819Z,80.82
2022-11-15T15:04:19.763Z,81.04
2022-11-15T15:09:24.038Z,81.11
2022-11-15T15:14:27.001Z,81.22
2022-11-15T15:19:29.966Z,83.04
2022-11-15T15:24:34.376Z,84.38
2022-11-15T15:29:37.359Z,82.95
2022-11-15T15:34:40.894Z,83.25
2022-11-15T15:39:45.235Z,82.28
2022-11-15T15:44:48.211Z,82.36
2022-11-15T15:49:52.609Z,82.23
2022-11-15T15:54:56.899Z,82.57
2022-11-15T15:59:59.813Z,83.02
2022-11-15T16:05:03.097Z,82.54
2022-11-15T16:10:19.580Z,81.97
2022-11-15T16:15:25.062Z,81.29
2022-11-15T16:20:37.567Z,83.12
2022-11-15T16:25:44.141Z,83.86
2022-11-15T16:30:50.000Z,82.71
2022-11-15T16:35:57.011Z,82.32
2022-11-15T16:41:01.780Z,82.41
2022-11-15T16:46:13.540Z,82.32
2022-11-15T16:51:17.802Z,82.90
2022-11-15T16:56:25.918Z,81.78
2022-11-15T17:01:30.613Z,82.49
2022-11-15T17:06:33.610Z,83.90
2022-11-15T17:11:38.006Z,83.34
2022-11-15T17:16:43.535Z,82.74
2022-11-15T17:21:49.542Z,82.41
2022-11-15T17:26:53.870Z,82.72
2022-11-15T17:31:56.930Z,83.17
2022-11-15T17:37:00.049Z,83.41
2022-11-15T17:42:04.382Z,82.49
2022-11-15T17:47:08.555Z,82.33
2022-11-15T17:52:11.805Z,82.63
2022-11-15T17:57:16.131Z,82.69
2022-11-15T18:02:19.503Z,82.36
2022-11-15T18:07:22.516Z,82.59
2022-11-15T18:12:26.929Z,85.79
2022-11-15T18:17:29.815Z,85.55
2022-11-15T18:22:32.825Z,84.46
2022-11-15T18:27:38.285Z,84.05
2022-11-15T18:32:41.226Z,85.29
2022-11-15T18:37:44.208Z,87.36
2022-11-15T18:42:48.670Z,87.80
2022-11-15T18:47:52.344Z,87.47
2022-11-15T18:52:55.531Z,89.13
2022-11-15T18:57:59.858Z,89.50
2022-11-15T19:03:02.807Z,88.78
2022-11-15T19:08:05.965Z,88.60
2022-11-15T19:13:10.291Z,88.40
2022-11-15T19:18:13.255Z,88.12
2022-11-15T19:23:16.425Z,88.55
2022-11-15T19:28:20.899Z,87.61
2022-11-15T19:33:27.647Z,87.08
2022-11-15T19:38:32.433Z,86.90
2022-11-15T19:43:37.174Z,87.22
2022-11-15T19:48:40.728Z,87.54
2022-11-15T19:53:44.465Z,88.89
2022-11-15T19:58:52.117Z,88.44
2022-11-15T20:03:57.827Z,88.80
2022-11-15T20:09:01.107Z,88.63
2022-11-15T20:14:06.591Z,89.14
2022-11-15T20:19:12.309Z,88.67
2022-11-15T20:24:16.276Z,88.51
2022-11-15T20:29:21.196Z,88.62
2022-11-15T20:34:24.230Z,89.48
2022-11-15T20:39:27.340Z,90.37
2022-11-15T20:44:31.800Z,89.89
2022-11-15T20:49:34.874Z,89.15
2022-11-15T20:54:38.237Z,88.70
2022-11-15T20:59:42.509Z,89.03
2022-11-15T21:04:45.643Z,87.59
2022-11-15T21:10:06.666Z,87.97
2022-11-15T21:15:12.194Z,87.60
2022-11-15T21:20:16.314Z,88.04
2022-11-15T21:25:19.264Z,87.76
2022-11-15T21:30:23.557Z,87.69
2022-11-15T21:35:26.474Z,87.10
2022-11-15T21:40:29.402Z,86.99
2022-11-15T21:45:33.918Z,87.75
2022-11-15T21:50:36.942Z,85.02
2022-11-15T21:55:40.442Z,85.69
2022-11-15T22:01:02.105Z,86.62
2022-11-15T22:06:06.966Z,88.34
2022-11-15T22:11:10.238Z,87.74
2022-11-15T22:16:14.651Z,87.39
2022-11-15T22:21:19.095Z,86.18
2022-11-15T22:26:24.073Z,85.12
2022-11-15T22:31:28.694Z,85.75
2022-11-15T22:36:46.831Z,84.93
2022-11-15T22:41:55.148Z,85.35
2022-11-15T22:46:59.511Z,86.05
2022-11-15T22:52:02.514Z,88.03
2022-11-15T22:57:05.607Z,87.38
2022-11-15T23:02:09.999Z,88.13
2022-11-15T23:07:13.135Z,88.14
2022-11-15T23:12:33.493Z,87.78
2022-11-15T23:17:38.303Z,87.91
2022-11-15T23:22:57.733Z,89.72
2022-11-15T23:28:02.738Z,89.48
2022-11-15T23:33:24.511Z,88.94
2022-11-15T23:38:27.548Z,88.27
2022-11-15T23:43:30.733Z,87.46
2022-11-15T23:48:35.435Z,86.52
2022-11-15T23:53:38.615Z,87.19
2022-11-15T23:58:42.320Z,87.41
